Terminal Aerodrome Forecast
Issued by NWS

Home | Current Version | Previous Version | Graphics & Text | Print | Product List | Glossary On
Versions: 1 2 3 4 5 6 7 8 9 10 11 12 13 14 15 16 17 18 19 20 21 22 23 24 25 26 27 28 29 30 31
000
FTUS43 KLOT 260100 AAA
TAFMDW
TAF AMD
KMDW 260112Z 2601/2624 21008KT P6SM OVC035
     FM260500 19005KT P6SM OVC025 PROB30 2610/2613 4SM -SHRA OVC025
     FM261300 23007KT P6SM BKN030
     FM261800 25006KT P6SM SCT030 BKN150=

USA.gov is the U.S. government's official web portal to all federal, state and local government web resources and services.